sensor_id;sensor_type;location;lat;lon;timestamp;P1;durP1;ratioP1;P2;durP2;ratioP2
21293;SDS011;10806;52.250;21.066;2022-08-04T00:00:12;16.55;;;10.68;;
21293;SDS011;10806;52.250;21.066;2022-08-04T00:02:58;13.00;;;9.38;;
21293;SDS011;10806;52.250;21.066;2022-08-04T00:11:08;14.55;;;9.85;;
21293;SDS011;10806;52.250;21.066;2022-08-04T00:13:38;15.50;;;10.23;;
21293;SDS011;10806;52.250;21.066;2022-08-04T00:16:07;14.75;;;10.13;;
21293;SDS011;10806;52.250;21.066;2022-08-04T00:18:38;15.77;;;10.07;;
21293;SDS011;10806;52.250;21.066;2022-08-04T00:21:06;15.48;;;10.60;;
21293;SDS011;10806;52.250;21.066;2022-08-04T00:23:35;19.27;;;10.35;;
21293;SDS011;10806;52.250;21.066;2022-08-04T00:26:03;12.60;;;10.38;;
21293;SDS011;10806;52.250;21.066;2022-08-04T00:28:29;13.90;;;9.68;;
21293;SDS011;10806;52.250;21.066;2022-08-04T00:30:54;12.82;;;9.82;;
21293;SDS011;10806;52.250;21.066;2022-08-04T00:33:20;15.38;;;9.70;;
21293;SDS011;10806;52.250;21.066;2022-08-04T00:35:47;13.18;;;9.50;;
21293;SDS011;10806;52.250;21.066;2022-08-04T00:38:16;14.48;;;9.35;;
21293;SDS011;10806;52.250;21.066;2022-08-04T00:40:57;14.60;;;10.35;;
21293;SDS011;10806;52.250;21.066;2022-08-04T00:43:34;15.60;;;9.68;;
21293;SDS011;10806;52.250;21.066;2022-08-04T00:46:15;14.13;;;10.05;;
21293;SDS011;10806;52.250;21.066;2022-08-04T00:57:01;17.20;;;9.88;;
21293;SDS011;10806;52.250;21.066;2022-08-04T01:02:24;11.93;;;10.02;;
21293;SDS011;10806;52.250;21.066;2022-08-04T01:05:05;13.63;;;9.48;;
21293;SDS011;10806;52.250;21.066;2022-08-04T01:10:21;12.60;;;9.70;;
21293;SDS011;10806;52.250;21.066;2022-08-04T01:13:25;15.38;;;9.00;;
21293;SDS011;10806;52.250;21.066;2022-08-04T01:16:01;15.88;;;9.43;;
21293;SDS011;10806;52.250;21.066;2022-08-04T01:27:05;16.10;;;8.93;;
21293;SDS011;10806;52.250;21.066;2022-08-04T01:29:39;13.55;;;9.18;;
21293;SDS011;10806;52.250;21.066;2022-08-04T01:32:33;10.80;;;8.65;;
21293;SDS011;10806;52.250;21.066;2022-08-04T01:35:04;9.70;;;8.35;;
21293;SDS011;10806;52.250;21.066;2022-08-04T01:40:32;10.00;;;8.70;;
21293;SDS011;10806;52.250;21.066;2022-08-04T01:42:59;14.52;;;9.40;;
21293;SDS011;10806;52.250;21.066;2022-08-04T01:45:25;11.15;;;9.07;;
21293;SDS011;10806;52.250;21.066;2022-08-04T01:47:53;10.90;;;9.43;;
21293;SDS011;10806;52.250;21.066;2022-08-04T01:50:20;10.73;;;8.98;;
21293;SDS011;10806;52.250;21.066;2022-08-04T01:52:46;11.48;;;9.00;;
21293;SDS011;10806;52.250;21.066;2022-08-04T01:55:13;10.90;;;8.45;;
21293;SDS011;10806;52.250;21.066;2022-08-04T01:57:42;11.90;;;8.48;;
21293;SDS011;10806;52.250;21.066;2022-08-04T02:00:14;9.77;;;8.23;;
21293;SDS011;10806;52.250;21.066;2022-08-04T02:02:43;11.07;;;8.52;;
21293;SDS011;10806;52.250;21.066;2022-08-04T02:05:19;9.73;;;8.43;;
21293;SDS011;10806;52.250;21.066;2022-08-04T02:07:49;9.43;;;8.52;;
21293;SDS011;10806;52.250;21.066;2022-08-04T02:13:12;10.23;;;8.65;;
21293;SDS011;10806;52.250;21.066;2022-08-04T02:18:24;10.10;;;8.52;;
21293;SDS011;10806;52.250;21.066;2022-08-04T02:21:01;9.60;;;8.70;;
21293;SDS011;10806;52.250;21.066;2022-08-04T02:23:38;8.88;;;8.05;;
21293;SDS011;10806;52.250;21.066;2022-08-04T02:26:08;10.38;;;8.52;;
21293;SDS011;10806;52.250;21.066;2022-08-04T02:28:46;10.75;;;8.63;;
21293;SDS011;10806;52.250;21.066;2022-08-04T02:33:44;14.65;;;8.65;;
21293;SDS011;10806;52.250;21.066;2022-08-04T02:36:21;11.07;;;8.20;;
21293;SDS011;10806;52.250;21.066;2022-08-04T02:38:53;10.27;;;8.10;;
21293;SDS011;10806;52.250;21.066;2022-08-04T02:41:21;16.02;;;8.25;;
21293;SDS011;10806;52.250;21.066;2022-08-04T02:43:48;15.20;;;8.18;;
21293;SDS011;10806;52.250;21.066;2022-08-04T02:46:15;12.95;;;8.57;;
21293;SDS011;10806;52.250;21.066;2022-08-04T02:48:44;10.88;;;8.23;;
21293;SDS011;10806;52.250;21.066;2022-08-04T02:51:12;9.15;;;8.20;;
21293;SDS011;10806;52.250;21.066;2022-08-04T02:53:38;11.65;;;7.85;;
21293;SDS011;10806;52.250;21.066;2022-08-04T02:56:06;11.10;;;8.25;;
21293;SDS011;10806;52.250;21.066;2022-08-04T02:58:33;13.40;;;8.82;;
21293;SDS011;10806;52.250;21.066;2022-08-04T03:01:01;9.70;;;8.00;;
21293;SDS011;10806;52.250;21.066;2022-08-04T03:03:35;10.32;;;8.07;;
21293;SDS011;10806;52.250;21.066;2022-08-04T03:08:58;10.32;;;7.90;;
21293;SDS011;10806;52.250;21.066;2022-08-04T03:11:42;8.63;;;7.68;;
21293;SDS011;10806;52.250;21.066;2022-08-04T03:17:09;14.70;;;7.93;;
21293;SDS011;10806;52.250;21.066;2022-08-04T03:26:10;8.57;;;7.70;;
21293;SDS011;10806;52.250;21.066;2022-08-04T03:36:31;14.25;;;8.15;;
21293;SDS011;10806;52.250;21.066;2022-08-04T03:51:01;12.45;;;7.45;;
21293;SDS011;10806;52.250;21.066;2022-08-04T03:54:24;10.63;;;7.18;;
21293;SDS011;10806;52.250;21.066;2022-08-04T03:57:39;12.10;;;7.85;;
21293;SDS011;10806;52.250;21.066;2022-08-04T04:05:47;8.90;;;7.53;;
21293;SDS011;10806;52.250;21.066;2022-08-04T04:08:54;11.05;;;7.88;;
21293;SDS011;10806;52.250;21.066;2022-08-04T04:14:39;9.20;;;7.25;;
21293;SDS011;10806;52.250;21.066;2022-08-04T04:19:53;8.73;;;7.60;;
21293;SDS011;10806;52.250;21.066;2022-08-04T04:48:08;10.35;;;7.22;;
21293;SDS011;10806;52.250;21.066;2022-08-04T04:55:44;10.38;;;6.82;;
21293;SDS011;10806;52.250;21.066;2022-08-04T04:58:16;9.05;;;7.20;;
21293;SDS011;10806;52.250;21.066;2022-08-04T05:09:54;7.68;;;6.75;;
21293;SDS011;10806;52.250;21.066;2022-08-04T05:15:06;10.25;;;7.53;;
21293;SDS011;10806;52.250;21.066;2022-08-04T05:17:34;8.95;;;6.45;;
21293;SDS011;10806;52.250;21.066;2022-08-04T05:27:44;8.68;;;7.07;;
21293;SDS011;10806;52.250;21.066;2022-08-04T05:30:14;8.45;;;6.82;;
21293;SDS011;10806;52.250;21.066;2022-08-04T05:32:45;7.60;;;6.80;;
21293;SDS011;10806;52.250;21.066;2022-08-04T05:35:20;9.25;;;6.68;;
21293;SDS011;10806;52.250;21.066;2022-08-04T05:37:52;10.07;;;6.88;;
21293;SDS011;10806;52.250;21.066;2022-08-04T05:40:20;10.18;;;6.35;;
21293;SDS011;10806;52.250;21.066;2022-08-04T05:42:48;6.90;;;6.20;;
21293;SDS011;10806;52.250;21.066;2022-08-04T05:45:15;11.27;;;7.13;;
21293;SDS011;10806;52.250;21.066;2022-08-04T05:47:43;7.63;;;5.90;;
21293;SDS011;10806;52.250;21.066;2022-08-04T05:50:10;14.25;;;6.88;;
21293;SDS011;10806;52.250;21.066;2022-08-04T05:52:37;10.25;;;6.88;;
21293;SDS011;10806;52.250;21.066;2022-08-04T05:55:03;16.98;;;6.10;;
21293;SDS011;10806;52.250;21.066;2022-08-04T05:57:30;18.35;;;6.95;;
21293;SDS011;10806;52.250;21.066;2022-08-04T05:59:57;14.18;;;6.40;;
21293;SDS011;10806;52.250;21.066;2022-08-04T06:02:25;10.43;;;6.70;;
21293;SDS011;10806;52.250;21.066;2022-08-04T06:04:53;7.50;;;6.60;;
21293;SDS011;10806;52.250;21.066;2022-08-04T06:07:20;11.50;;;6.47;;
21293;SDS011;10806;52.250;21.066;2022-08-04T06:09:45;7.90;;;6.57;;
21293;SDS011;10806;52.250;21.066;2022-08-04T06:12:13;12.13;;;6.57;;
21293;SDS011;10806;52.250;21.066;2022-08-04T06:14:46;21.67;;;6.55;;
21293;SDS011;10806;52.250;21.066;2022-08-04T06:17:16;15.98;;;6.32;;
21293;SDS011;10806;52.250;21.066;2022-08-04T06:19:48;8.90;;;5.93;;
21293;SDS011;10806;52.250;21.066;2022-08-04T06:22:17;8.90;;;6.05;;
21293;SDS011;10806;52.250;21.066;2022-08-04T06:24:44;7.28;;;5.93;;
21293;SDS011;10806;52.250;21.066;2022-08-04T06:27:12;10.60;;;6.13;;
21293;SDS011;10806;52.250;21.066;2022-08-04T06:29:41;14.30;;;6.30;;
21293;SDS011;10806;52.250;21.066;2022-08-04T06:32:08;14.23;;;5.97;;
21293;SDS011;10806;52.250;21.066;2022-08-04T06:34:38;6.45;;;5.75;;
21293;SDS011;10806;52.250;21.066;2022-08-04T06:37:05;12.25;;;6.22;;
21293;SDS011;10806;52.250;21.066;2022-08-04T06:39:32;7.28;;;5.90;;
21293;SDS011;10806;52.250;21.066;2022-08-04T06:41:58;6.75;;;6.10;;
21293;SDS011;10806;52.250;21.066;2022-08-04T06:44:25;7.78;;;5.97;;
21293;SDS011;10806;52.250;21.066;2022-08-04T06:46:52;10.43;;;6.07;;
21293;SDS011;10806;52.250;21.066;2022-08-04T06:49:18;14.50;;;5.38;;
21293;SDS011;10806;52.250;21.066;2022-08-04T06:51:46;10.70;;;5.68;;
21293;SDS011;10806;52.250;21.066;2022-08-04T06:54:13;10.95;;;5.90;;
21293;SDS011;10806;52.250;21.066;2022-08-04T06:56:40;11.70;;;5.75;;
21293;SDS011;10806;52.250;21.066;2022-08-04T06:59:08;10.90;;;5.75;;
21293;SDS011;10806;52.250;21.066;2022-08-04T07:01:36;15.35;;;5.47;;
21293;SDS011;10806;52.250;21.066;2022-08-04T07:04:02;22.88;;;6.15;;
21293;SDS011;10806;52.250;21.066;2022-08-04T07:06:28;10.65;;;5.47;;
21293;SDS011;10806;52.250;21.066;2022-08-04T07:08:54;17.13;;;5.22;;
21293;SDS011;10806;52.250;21.066;2022-08-04T07:11:20;14.68;;;5.72;;
21293;SDS011;10806;52.250;21.066;2022-08-04T07:13:47;12.43;;;5.90;;
21293;SDS011;10806;52.250;21.066;2022-08-04T07:16:14;13.77;;;5.63;;
21293;SDS011;10806;52.250;21.066;2022-08-04T07:18:41;11.40;;;5.60;;
21293;SDS011;10806;52.250;21.066;2022-08-04T07:21:07;7.90;;;5.60;;
21293;SDS011;10806;52.250;21.066;2022-08-04T07:23:32;15.48;;;5.72;;
21293;SDS011;10806;52.250;21.066;2022-08-04T07:25:58;12.07;;;5.35;;
21293;SDS011;10806;52.250;21.066;2022-08-04T07:28:26;12.95;;;5.40;;
21293;SDS011;10806;52.250;21.066;2022-08-04T07:30:53;9.55;;;5.90;;
21293;SDS011;10806;52.250;21.066;2022-08-04T07:33:19;8.65;;;5.38;;
21293;SDS011;10806;52.250;21.066;2022-08-04T07:35:46;7.40;;;5.85;;
21293;SDS011;10806;52.250;21.066;2022-08-04T07:38:21;9.18;;;5.45;;
21293;SDS011;10806;52.250;21.066;2022-08-04T07:40:47;7.25;;;5.43;;
21293;SDS011;10806;52.250;21.066;2022-08-04T07:43:13;9.68;;;5.82;;
21293;SDS011;10806;52.250;21.066;2022-08-04T07:45:40;6.47;;;5.03;;
21293;SDS011;10806;52.250;21.066;2022-08-04T07:48:07;9.88;;;5.60;;
21293;SDS011;10806;52.250;21.066;2022-08-04T07:50:34;11.73;;;5.43;;
21293;SDS011;10806;52.250;21.066;2022-08-04T07:53:02;10.35;;;5.63;;
21293;SDS011;10806;52.250;21.066;2022-08-04T07:55:28;8.50;;;5.57;;
21293;SDS011;10806;52.250;21.066;2022-08-04T07:57:54;8.45;;;5.47;;
21293;SDS011;10806;52.250;21.066;2022-08-04T08:00:20;7.50;;;5.30;;
21293;SDS011;10806;52.250;21.066;2022-08-04T08:02:47;7.43;;;5.07;;
21293;SDS011;10806;52.250;21.066;2022-08-04T08:05:14;8.30;;;4.95;;
21293;SDS011;10806;52.250;21.066;2022-08-04T08:07:46;8.88;;;5.57;;
21293;SDS011;10806;52.250;21.066;2022-08-04T08:10:15;6.65;;;5.25;;
21293;SDS011;10806;52.250;21.066;2022-08-04T08:12:42;6.15;;;4.90;;
21293;SDS011;10806;52.250;21.066;2022-08-04T08:15:09;7.45;;;5.55;;
21293;SDS011;10806;52.250;21.066;2022-08-04T08:17:38;6.53;;;5.15;;
21293;SDS011;10806;52.250;21.066;2022-08-04T08:20:05;7.25;;;5.40;;
21293;SDS011;10806;52.250;21.066;2022-08-04T08:22:32;6.50;;;5.00;;
21293;SDS011;10806;52.250;21.066;2022-08-04T08:24:58;7.30;;;4.88;;
21293;SDS011;10806;52.250;21.066;2022-08-04T08:27:24;8.45;;;4.75;;
21293;SDS011;10806;52.250;21.066;2022-08-04T08:29:50;8.02;;;5.28;;
21293;SDS011;10806;52.250;21.066;2022-08-04T08:32:16;7.20;;;5.10;;
21293;SDS011;10806;52.250;21.066;2022-08-04T08:34:42;5.32;;;4.80;;
21293;SDS011;10806;52.250;21.066;2022-08-04T08:45:50;6.95;;;5.28;;
21293;SDS011;10806;52.250;21.066;2022-08-04T08:51:49;5.85;;;4.95;;
21293;SDS011;10806;52.250;21.066;2022-08-04T08:55:28;5.05;;;4.60;;
21293;SDS011;10806;52.250;21.066;2022-08-04T08:57:41;5.13;;;4.63;;
21293;SDS011;10806;52.250;21.066;2022-08-04T09:03:33;5.97;;;4.97;;
21293;SDS011;10806;52.250;21.066;2022-08-04T09:09:09;5.40;;;4.53;;
21293;SDS011;10806;52.250;21.066;2022-08-04T09:12:17;6.20;;;4.90;;
21293;SDS011;10806;52.250;21.066;2022-08-04T09:14:59;5.68;;;5.05;;
21293;SDS011;10806;52.250;21.066;2022-08-04T09:17:32;5.50;;;5.00;;
21293;SDS011;10806;52.250;21.066;2022-08-04T09:20:34;5.00;;;4.50;;
21293;SDS011;10806;52.250;21.066;2022-08-04T09:23:12;4.95;;;4.55;;
21293;SDS011;10806;52.250;21.066;2022-08-04T09:29:06;8.52;;;4.60;;
21293;SDS011;10806;52.250;21.066;2022-08-04T09:31:43;5.10;;;4.60;;
21293;SDS011;10806;52.250;21.066;2022-08-04T09:34:33;5.10;;;4.53;;
21293;SDS011;10806;52.250;21.066;2022-08-04T09:37:30;5.93;;;4.63;;
21293;SDS011;10806;52.250;21.066;2022-08-04T09:43:01;4.53;;;4.13;;
21293;SDS011;10806;52.250;21.066;2022-08-04T09:45:33;4.88;;;4.47;;
21293;SDS011;10806;52.250;21.066;2022-08-04T09:48:16;6.45;;;4.50;;
21293;SDS011;10806;52.250;21.066;2022-08-04T09:51:06;5.45;;;4.45;;
21293;SDS011;10806;52.250;21.066;2022-08-04T09:53:54;14.80;;;4.95;;
21293;SDS011;10806;52.250;21.066;2022-08-04T09:56:47;7.20;;;4.18;;
21293;SDS011;10806;52.250;21.066;2022-08-04T09:59:26;10.00;;;4.47;;
21293;SDS011;10806;52.250;21.066;2022-08-04T10:02:02;7.78;;;4.03;;
21293;SDS011;10806;52.250;21.066;2022-08-04T10:04:31;6.78;;;4.03;;
21293;SDS011;10806;52.250;21.066;2022-08-04T10:14:51;19.38;;;4.97;;
21293;SDS011;10806;52.250;21.066;2022-08-04T10:22:36;6.05;;;3.97;;
21293;SDS011;10806;52.250;21.066;2022-08-04T10:25:21;14.55;;;4.53;;
21293;SDS011;10806;52.250;21.066;2022-08-04T10:27:56;11.65;;;4.78;;
21293;SDS011;10806;52.250;21.066;2022-08-04T10:30:24;6.85;;;4.43;;
21293;SDS011;10806;52.250;21.066;2022-08-04T10:32:54;11.65;;;4.82;;
21293;SDS011;10806;52.250;21.066;2022-08-04T10:35:27;8.98;;;4.57;;
21293;SDS011;10806;52.250;21.066;2022-08-04T10:38:03;10.00;;;4.82;;
21293;SDS011;10806;52.250;21.066;2022-08-04T10:40:33;9.57;;;4.53;;
21293;SDS011;10806;52.250;21.066;2022-08-04T10:43:21;16.63;;;4.88;;
21293;SDS011;10806;52.250;21.066;2022-08-04T10:45:55;7.95;;;4.55;;
21293;SDS011;10806;52.250;21.066;2022-08-04T10:48:43;9.63;;;4.10;;
21293;SDS011;10806;52.250;21.066;2022-08-04T10:51:25;15.63;;;5.45;;
21293;SDS011;10806;52.250;21.066;2022-08-04T10:53:57;14.02;;;5.20;;
21293;SDS011;10806;52.250;21.066;2022-08-04T10:57:12;25.05;;;6.53;;
21293;SDS011;10806;52.250;21.066;2022-08-04T10:59:29;33.60;;;7.25;;
21293;SDS011;10806;52.250;21.066;2022-08-04T11:02:01;24.85;;;6.65;;
21293;SDS011;10806;52.250;21.066;2022-08-04T11:04:48;29.40;;;7.43;;
21293;SDS011;10806;52.250;21.066;2022-08-04T11:07:23;30.50;;;6.97;;
21293;SDS011;10806;52.250;21.066;2022-08-04T11:09:52;27.38;;;7.20;;
21293;SDS011;10806;52.250;21.066;2022-08-04T11:12:20;27.92;;;6.57;;
21293;SDS011;10806;52.250;21.066;2022-08-04T11:14:51;21.80;;;6.35;;
21293;SDS011;10806;52.250;21.066;2022-08-04T11:17:26;30.77;;;7.35;;
21293;SDS011;10806;52.250;21.066;2022-08-04T11:20:14;27.63;;;7.25;;
21293;SDS011;10806;52.250;21.066;2022-08-04T11:23:35;17.77;;;6.45;;
21293;SDS011;10806;52.250;21.066;2022-08-04T11:28:36;32.97;;;6.88;;
21293;SDS011;10806;52.250;21.066;2022-08-04T11:31:39;40.42;;;6.97;;
21293;SDS011;10806;52.250;21.066;2022-08-04T11:34:17;35.72;;;7.28;;
21293;SDS011;10806;52.250;21.066;2022-08-04T11:39:52;24.50;;;6.53;;
21293;SDS011;10806;52.250;21.066;2022-08-04T11:42:55;23.27;;;6.82;;
21293;SDS011;10806;52.250;21.066;2022-08-04T11:45:33;22.42;;;6.55;;
21293;SDS011;10806;52.250;21.066;2022-08-04T11:48:36;22.63;;;6.85;;
21293;SDS011;10806;52.250;21.066;2022-08-04T11:50:58;13.98;;;6.30;;
21293;SDS011;10806;52.250;21.066;2022-08-04T11:53:26;10.88;;;6.00;;
21293;SDS011;10806;52.250;21.066;2022-08-04T11:55:57;17.30;;;6.53;;
21293;SDS011;10806;52.250;21.066;2022-08-04T11:58:25;14.75;;;6.18;;
21293;SDS011;10806;52.250;21.066;2022-08-04T12:00:52;17.65;;;6.78;;
21293;SDS011;10806;52.250;21.066;2022-08-04T12:09:21;11.13;;;6.32;;
21293;SDS011;10806;52.250;21.066;2022-08-04T12:14:48;12.57;;;5.88;;
21293;SDS011;10806;52.250;21.066;2022-08-04T12:17:28;14.68;;;6.28;;
21293;SDS011;10806;52.250;21.066;2022-08-04T12:20:03;10.93;;;6.40;;
21293;SDS011;10806;52.250;21.066;2022-08-04T12:22:33;14.75;;;6.30;;
21293;SDS011;10806;52.250;21.066;2022-08-04T12:25:08;9.25;;;5.65;;
21293;SDS011;10806;52.250;21.066;2022-08-04T12:27:43;13.45;;;5.95;;
21293;SDS011;10806;52.250;21.066;2022-08-04T12:30:13;12.05;;;5.65;;
21293;SDS011;10806;52.250;21.066;2022-08-04T12:32:42;16.10;;;6.28;;
21293;SDS011;10806;52.250;21.066;2022-08-04T12:35:28;9.45;;;6.10;;
21293;SDS011;10806;52.250;21.066;2022-08-04T12:40:42;6.32;;;5.20;;
21293;SDS011;10806;52.250;21.066;2022-08-04T12:43:18;9.77;;;5.82;;
21293;SDS011;10806;52.250;21.066;2022-08-04T12:45:54;10.77;;;5.70;;
21293;SDS011;10806;52.250;21.066;2022-08-04T12:48:24;12.60;;;5.93;;
21293;SDS011;10806;52.250;21.066;2022-08-04T12:50:53;16.48;;;6.15;;
21293;SDS011;10806;52.250;21.066;2022-08-04T12:53:22;8.52;;;5.10;;
21293;SDS011;10806;52.250;21.066;2022-08-04T12:56:04;16.63;;;5.70;;
21293;SDS011;10806;52.250;21.066;2022-08-04T12:58:32;10.68;;;5.15;;
21293;SDS011;10806;52.250;21.066;2022-08-04T13:01:04;11.40;;;5.97;;
21293;SDS011;10806;52.250;21.066;2022-08-04T13:03:38;21.23;;;4.88;;
21293;SDS011;10806;52.250;21.066;2022-08-04T13:06:09;9.60;;;5.63;;
21293;SDS011;10806;52.250;21.066;2022-08-04T13:08:38;10.02;;;5.22;;
21293;SDS011;10806;52.250;21.066;2022-08-04T13:11:05;10.07;;;5.07;;
21293;SDS011;10806;52.250;21.066;2022-08-04T13:13:34;8.45;;;4.78;;
21293;SDS011;10806;52.250;21.066;2022-08-04T13:16:08;5.75;;;4.88;;
21293;SDS011;10806;52.250;21.066;2022-08-04T13:18:36;7.97;;;4.93;;
21293;SDS011;10806;52.250;21.066;2022-08-04T13:23:44;10.07;;;4.55;;
21293;SDS011;10806;52.250;21.066;2022-08-04T13:26:11;11.48;;;4.60;;
21293;SDS011;10806;52.250;21.066;2022-08-04T13:28:40;12.88;;;4.93;;
21293;SDS011;10806;52.250;21.066;2022-08-04T13:31:09;14.95;;;5.80;;
21293;SDS011;10806;52.250;21.066;2022-08-04T13:33:38;14.70;;;5.07;;
21293;SDS011;10806;52.250;21.066;2022-08-04T13:36:06;16.67;;;4.80;;
21293;SDS011;10806;52.250;21.066;2022-08-04T13:38:35;12.57;;;5.32;;
21293;SDS011;10806;52.250;21.066;2022-08-04T13:41:05;10.40;;;4.68;;
21293;SDS011;10806;52.250;21.066;2022-08-04T13:43:33;10.40;;;4.25;;
21293;SDS011;10806;52.250;21.066;2022-08-04T13:46:07;12.18;;;4.22;;
21293;SDS011;10806;52.250;21.066;2022-08-04T13:48:37;9.65;;;4.32;;
21293;SDS011;10806;52.250;21.066;2022-08-04T13:51:06;6.15;;;3.92;;
21293;SDS011;10806;52.250;21.066;2022-08-04T13:53:34;10.20;;;3.97;;
21293;SDS011;10806;52.250;21.066;2022-08-04T13:56:02;9.48;;;4.20;;
21293;SDS011;10806;52.250;21.066;2022-08-04T13:58:32;9.57;;;3.80;;
21293;SDS011;10806;52.250;21.066;2022-08-04T14:01:00;7.43;;;4.13;;
21293;SDS011;10806;52.250;21.066;2022-08-04T14:11:53;6.97;;;3.38;;
21293;SDS011;10806;52.250;21.066;2022-08-04T14:17:09;9.45;;;3.75;;
21293;SDS011;10806;52.250;21.066;2022-08-04T14:25:10;5.95;;;3.40;;
21293;SDS011;10806;52.250;21.066;2022-08-04T14:30:22;5.65;;;3.75;;
21293;SDS011;10806;52.250;21.066;2022-08-04T14:32:58;7.07;;;3.92;;
21293;SDS011;10806;52.250;21.066;2022-08-04T14:35:27;4.70;;;3.67;;
21293;SDS011;10806;52.250;21.066;2022-08-04T14:37:56;3.75;;;3.40;;
21293;SDS011;10806;52.250;21.066;2022-08-04T14:40:25;30.27;;;4.18;;
21293;SDS011;10806;52.250;21.066;2022-08-04T14:42:52;6.07;;;3.53;;
21293;SDS011;10806;52.250;21.066;2022-08-04T14:45:23;7.38;;;3.58;;
21293;SDS011;10806;52.250;21.066;2022-08-04T14:47:59;4.10;;;3.70;;
21293;SDS011;10806;52.250;21.066;2022-08-04T14:50:59;6.20;;;3.20;;
21293;SDS011;10806;52.250;21.066;2022-08-04T14:53:19;6.00;;;3.50;;
21293;SDS011;10806;52.250;21.066;2022-08-04T14:55:48;4.32;;;3.40;;
21293;SDS011;10806;52.250;21.066;2022-08-04T14:58:16;8.88;;;3.53;;
21293;SDS011;10806;52.250;21.066;2022-08-04T15:00:53;4.70;;;3.55;;
21293;SDS011;10806;52.250;21.066;2022-08-04T15:03:24;4.18;;;3.28;;
21293;SDS011;10806;52.250;21.066;2022-08-04T15:05:51;4.63;;;3.72;;
21293;SDS011;10806;52.250;21.066;2022-08-04T15:08:18;8.27;;;3.50;;
21293;SDS011;10806;52.250;21.066;2022-08-04T15:10:45;4.78;;;3.38;;
21293;SDS011;10806;52.250;21.066;2022-08-04T15:13:11;3.80;;;3.40;;
21293;SDS011;10806;52.250;21.066;2022-08-04T15:15:39;5.97;;;3.90;;
21293;SDS011;10806;52.250;21.066;2022-08-04T15:18:06;6.97;;;3.63;;
21293;SDS011;10806;52.250;21.066;2022-08-04T15:20:33;6.47;;;3.22;;
21293;SDS011;10806;52.250;21.066;2022-08-04T15:23:00;6.22;;;3.50;;
21293;SDS011;10806;52.250;21.066;2022-08-04T15:25:33;4.28;;;3.30;;
21293;SDS011;10806;52.250;21.066;2022-08-04T15:28:14;5.95;;;3.35;;
21293;SDS011;10806;52.250;21.066;2022-08-04T15:30:43;3.63;;;3.30;;
21293;SDS011;10806;52.250;21.066;2022-08-04T15:33:11;10.77;;;3.60;;
21293;SDS011;10806;52.250;21.066;2022-08-04T15:35:38;10.40;;;3.70;;
21293;SDS011;10806;52.250;21.066;2022-08-04T15:38:08;7.78;;;3.60;;
21293;SDS011;10806;52.250;21.066;2022-08-04T15:51:43;10.45;;;4.20;;
21293;SDS011;10806;52.250;21.066;2022-08-04T15:56:42;4.68;;;3.53;;
21293;SDS011;10806;52.250;21.066;2022-08-04T15:59:09;8.18;;;3.85;;
21293;SDS011;10806;52.250;21.066;2022-08-04T16:01:35;6.82;;;3.70;;
21293;SDS011;10806;52.250;21.066;2022-08-04T16:04:04;6.03;;;3.20;;
21293;SDS011;10806;52.250;21.066;2022-08-04T16:06:45;5.20;;;3.83;;
21293;SDS011;10806;52.250;21.066;2022-08-04T16:09:21;3.78;;;3.33;;
21293;SDS011;10806;52.250;21.066;2022-08-04T16:11:50;6.50;;;3.50;;
21293;SDS011;10806;52.250;21.066;2022-08-04T16:14:16;4.05;;;3.40;;
21293;SDS011;10806;52.250;21.066;2022-08-04T16:16:54;6.22;;;3.38;;
21293;SDS011;10806;52.250;21.066;2022-08-04T16:22:00;3.75;;;3.33;;
21293;SDS011;10806;52.250;21.066;2022-08-04T16:26:55;4.25;;;3.20;;
21293;SDS011;10806;52.250;21.066;2022-08-04T16:34:45;6.00;;;4.10;;
21293;SDS011;10806;52.250;21.066;2022-08-04T16:37:13;5.20;;;3.60;;
21293;SDS011;10806;52.250;21.066;2022-08-04T16:39:40;4.78;;;3.40;;
21293;SDS011;10806;52.250;21.066;2022-08-04T16:44:59;16.58;;;3.50;;
21293;SDS011;10806;52.250;21.066;2022-08-04T16:50:15;5.90;;;3.50;;
21293;SDS011;10806;52.250;21.066;2022-08-04T16:52:45;8.32;;;3.13;;
21293;SDS011;10806;52.250;21.066;2022-08-04T16:55:18;6.63;;;3.30;;
21293;SDS011;10806;52.250;21.066;2022-08-04T16:57:49;3.60;;;3.28;;
21293;SDS011;10806;52.250;21.066;2022-08-04T17:00:16;9.02;;;3.72;;
21293;SDS011;10806;52.250;21.066;2022-08-04T17:02:51;5.75;;;4.10;;
21293;SDS011;10806;52.250;21.066;2022-08-04T17:05:21;8.55;;;3.70;;
21293;SDS011;10806;52.250;21.066;2022-08-04T17:07:52;6.65;;;3.33;;
21293;SDS011;10806;52.250;21.066;2022-08-04T17:10:36;7.03;;;3.70;;
21293;SDS011;10806;52.250;21.066;2022-08-04T17:15:49;6.30;;;3.33;;
21293;SDS011;10806;52.250;21.066;2022-08-04T17:18:18;5.72;;;3.20;;
21293;SDS011;10806;52.250;21.066;2022-08-04T17:20:46;9.25;;;3.75;;
21293;SDS011;10806;52.250;21.066;2022-08-04T17:23:25;6.10;;;3.35;;
21293;SDS011;10806;52.250;21.066;2022-08-04T17:25:53;6.72;;;3.78;;
21293;SDS011;10806;52.250;21.066;2022-08-04T17:28:21;5.55;;;3.55;;
21293;SDS011;10806;52.250;21.066;2022-08-04T17:30:48;5.88;;;3.65;;
21293;SDS011;10806;52.250;21.066;2022-08-04T17:33:15;6.30;;;3.60;;
21293;SDS011;10806;52.250;21.066;2022-08-04T17:35:47;4.97;;;3.85;;
21293;SDS011;10806;52.250;21.066;2022-08-04T17:38:13;8.50;;;3.50;;
21293;SDS011;10806;52.250;21.066;2022-08-04T17:40:49;3.78;;;3.35;;
21293;SDS011;10806;52.250;21.066;2022-08-04T17:43:15;5.53;;;3.72;;
21293;SDS011;10806;52.250;21.066;2022-08-04T17:45:41;6.55;;;3.28;;
21293;SDS011;10806;52.250;21.066;2022-08-04T17:48:07;10.57;;;3.60;;
21293;SDS011;10806;52.250;21.066;2022-08-04T17:50:42;5.03;;;3.72;;
21293;SDS011;10806;52.250;21.066;2022-08-04T17:53:07;7.85;;;3.50;;
21293;SDS011;10806;52.250;21.066;2022-08-04T17:55:37;6.03;;;3.92;;
21293;SDS011;10806;52.250;21.066;2022-08-04T17:58:11;7.35;;;4.00;;
21293;SDS011;10806;52.250;21.066;2022-08-04T18:00:58;9.88;;;4.30;;
21293;SDS011;10806;52.250;21.066;2022-08-04T18:03:24;4.72;;;3.50;;
21293;SDS011;10806;52.250;21.066;2022-08-04T18:05:50;6.75;;;4.25;;
21293;SDS011;10806;52.250;21.066;2022-08-04T18:08:24;12.57;;;4.00;;
21293;SDS011;10806;52.250;21.066;2022-08-04T18:10:51;19.63;;;4.10;;
21293;SDS011;10806;52.250;21.066;2022-08-04T18:13:18;23.60;;;4.90;;
21293;SDS011;10806;52.250;21.066;2022-08-04T18:15:44;23.77;;;4.70;;
21293;SDS011;10806;52.250;21.066;2022-08-04T18:18:20;27.08;;;4.63;;
21293;SDS011;10806;52.250;21.066;2022-08-04T18:20:46;17.85;;;4.40;;
21293;SDS011;10806;52.250;21.066;2022-08-04T18:23:12;30.25;;;5.40;;
21293;SDS011;10806;52.250;21.066;2022-08-04T18:25:43;23.67;;;4.70;;
21293;SDS011;10806;52.250;21.066;2022-08-04T18:28:10;22.73;;;4.72;;
21293;SDS011;10806;52.250;21.066;2022-08-04T18:30:38;33.60;;;5.07;;
21293;SDS011;10806;52.250;21.066;2022-08-04T18:33:04;38.58;;;5.50;;
21293;SDS011;10806;52.250;21.066;2022-08-04T18:35:29;24.73;;;4.45;;
21293;SDS011;10806;52.250;21.066;2022-08-04T18:37:58;28.42;;;4.95;;
21293;SDS011;10806;52.250;21.066;2022-08-04T18:40:24;30.98;;;5.55;;
21293;SDS011;10806;52.250;21.066;2022-08-04T18:42:49;34.33;;;5.30;;
21293;SDS011;10806;52.250;21.066;2022-08-04T18:45:15;33.90;;;5.40;;
21293;SDS011;10806;52.250;21.066;2022-08-04T18:47:41;31.58;;;5.20;;
21293;SDS011;10806;52.250;21.066;2022-08-04T18:50:06;30.27;;;5.47;;
21293;SDS011;10806;52.250;21.066;2022-08-04T18:52:32;31.92;;;4.72;;
21293;SDS011;10806;52.250;21.066;2022-08-04T18:54:59;28.33;;;5.45;;
21293;SDS011;10806;52.250;21.066;2022-08-04T18:57:25;28.17;;;5.13;;